BVX243A EGKK-LOWI
Flight info
| Callsign | BVX243A |
|---|---|
| Flight time | 1h 23m |
| Altitude | 39000 |
| Route | DVR2P DVR L9 KONAN DCT KOK UL607 FERDI DCT REMBA DCT LIRSU DCT KRH DCT TEDGO DCT BATUB M738 MADEB MADEB1B |
| Aircraft | A20N/M-SDE2E3FGHIRWXY/LB1 |
Departure
| Time | 2026-05-06 11:54 |
|---|---|
| Airport | London Gatwick Airport (EGKK) |
Arrival
| Time | 2026-05-06 13:17 |
|---|---|
| Airport | Innsbruck Airport (LOWI) |
| Time | Latitude | Longitude | Altitude | Speed | Heading |
|---|---|---|---|---|---|
| 2026-05-06 11:32 | 51.15777 | -0.17942 | 204 ft | 0 kts | 33° |
| 2026-05-06 11:37 | 51.15768 | -0.17952 | 204 ft | 2 kts | 32° |
| 2026-05-06 11:38 | 51.15754 | -0.17966 | 217 ft | 2 kts | 32° |
| 2026-05-06 11:38 | 51.15740 | -0.17979 | 210 ft | 2 kts | 14° |
| 2026-05-06 11:38 | 51.15724 | -0.17978 | 215 ft | 2 kts | 343° |
| 2026-05-06 11:38 | 51.15708 | -0.17970 | 209 ft | 2 kts | 322° |
| 2026-05-06 11:39 | 51.15700 | -0.17949 | 212 ft | 2 kts | 262° |
| 2026-05-06 11:39 | 51.15700 | -0.17948 | 212 ft | 0 kts | 262° |
| 2026-05-06 11:43 | 51.15700 | -0.17953 | 213 ft | 2 kts | 262° |
| 2026-05-06 11:43 | 51.15691 | -0.18027 | 204 ft | 12 kts | 258° |
| 2026-05-06 11:44 | 51.15625 | -0.18344 | 209 ft | 12 kts | 198° |
| 2026-05-06 11:44 | 51.15540 | -0.18329 | 204 ft | 14 kts | 172° |
| 2026-05-06 11:44 | 51.15436 | -0.18295 | 215 ft | 12 kts | 168° |
| 2026-05-06 11:44 | 51.15346 | -0.18265 | 208 ft | 14 kts | 168° |
| 2026-05-06 11:45 | 51.15267 | -0.18239 | 204 ft | 8 kts | 167° |
| 2026-05-06 11:45 | 51.15261 | -0.18237 | 204 ft | 0 kts | 166° |
| 2026-05-06 11:46 | 51.15254 | -0.18234 | 207 ft | 5 kts | 166° |
| 2026-05-06 11:46 | 51.15194 | -0.18260 | 208 ft | 12 kts | 242° |
| 2026-05-06 11:46 | 51.15175 | -0.18415 | 207 ft | 16 kts | 258° |
| 2026-05-06 11:46 | 51.15148 | -0.18607 | 204 ft | 19 kts | 257° |
| 2026-05-06 11:47 | 51.15119 | -0.18829 | 207 ft | 21 kts | 258° |
| 2026-05-06 11:47 | 51.15089 | -0.19059 | 208 ft | 21 kts | 258° |
| 2026-05-06 11:47 | 51.15056 | -0.19289 | 216 ft | 21 kts | 257° |
| 2026-05-06 11:47 | 51.15024 | -0.19513 | 210 ft | 21 kts | 257° |
| 2026-05-06 11:48 | 51.14991 | -0.19754 | 205 ft | 23 kts | 258° |
| 2026-05-06 11:48 | 51.14957 | -0.20015 | 207 ft | 23 kts | 256° |
| 2026-05-06 11:48 | 51.14921 | -0.20267 | 204 ft | 24 kts | 257° |
| 2026-05-06 11:48 | 51.14885 | -0.20516 | 204 ft | 22 kts | 256° |
| 2026-05-06 11:49 | 51.14851 | -0.20757 | 208 ft | 23 kts | 258° |
| 2026-05-06 11:49 | 51.14818 | -0.20999 | 206 ft | 23 kts | 258° |
| 2026-05-06 11:49 | 51.14787 | -0.21186 | 205 ft | 16 kts | 251° |
| 2026-05-06 11:49 | 51.14766 | -0.21306 | 211 ft | 9 kts | 257° |
| 2026-05-06 11:50 | 51.14750 | -0.21390 | 210 ft | 7 kts | 235° |
| 2026-05-06 11:50 | 51.14694 | -0.21401 | 209 ft | 10 kts | 163° |
| 2026-05-06 11:50 | 51.14639 | -0.21337 | 208 ft | 7 kts | 173° |
| 2026-05-06 11:50 | 51.14598 | -0.21323 | 205 ft | 8 kts | 166° |
| 2026-05-06 11:51 | 51.14541 | -0.21280 | 210 ft | 11 kts | 138° |
| 2026-05-06 11:51 | 51.14521 | -0.21169 | 208 ft | 7 kts | 77° |
| 2026-05-06 11:51 | 51.14522 | -0.21161 | 207 ft | 0 kts | 77° |
| 2026-05-06 11:52 | 51.14522 | -0.21160 | 206 ft | 1 kts | 77° |
| 2026-05-06 11:53 | 51.14550 | -0.20962 | 211 ft | 48 kts | 77° |
| 2026-05-06 11:53 | 51.14672 | -0.20092 | 211 ft | 110 kts | 78° |
| 2026-05-06 11:53 | 51.14863 | -0.18648 | 212 ft | 155 kts | 76° |
| 2026-05-06 11:53 | 51.15085 | -0.16903 | 678 ft | 160 kts | 74° |
| 2026-05-06 11:54 | 51.15311 | -0.15172 | 1451 ft | 161 kts | 72° |
| 2026-05-06 11:54 | 51.15537 | -0.13464 | 2192 ft | 160 kts | 73° |
| 2026-05-06 11:54 | 51.15783 | -0.11641 | 2584 ft | 177 kts | 74° |
| 2026-05-06 11:54 | 51.16061 | -0.09602 | 2904 ft | 199 kts | 74° |
| 2026-05-06 11:55 | 51.16369 | -0.07312 | 3346 ft | 223 kts | 74° |
| 2026-05-06 11:55 | 51.16706 | -0.04775 | 3923 ft | 245 kts | 75° |
| 2026-05-06 11:55 | 51.17071 | -0.02019 | 4617 ft | 260 kts | 75° |
| 2026-05-06 11:55 | 51.17443 | 0.00825 | 5106 ft | 267 kts | 75° |
| 2026-05-06 11:56 | 51.17826 | 0.03749 | 5721 ft | 269 kts | 75° |
| 2026-05-06 11:56 | 51.18207 | 0.06662 | 5938 ft | 269 kts | 75° |
| 2026-05-06 11:56 | 51.18558 | 0.09595 | 5984 ft | 272 kts | 83° |
| 2026-05-06 11:56 | 51.18313 | 0.12608 | 6090 ft | 280 kts | 103° |
| 2026-05-06 11:57 | 51.17766 | 0.15605 | 6681 ft | 282 kts | 102° |
| 2026-05-06 11:57 | 51.17350 | 0.18636 | 7836 ft | 280 kts | 97° |
| 2026-05-06 11:57 | 51.17099 | 0.21737 | 8820 ft | 284 kts | 92° |
| 2026-05-06 11:57 | 51.16974 | 0.24910 | 9795 ft | 290 kts | 90° |
| 2026-05-06 11:58 | 51.16916 | 0.28167 | 10530 ft | 303 kts | 89° |
| 2026-05-06 11:58 | 51.16882 | 0.31654 | 10894 ft | 327 kts | 89° |
| 2026-05-06 11:58 | 51.16861 | 0.35388 | 11364 ft | 345 kts | 89° |
| 2026-05-06 11:58 | 51.16860 | 0.39243 | 12201 ft | 350 kts | 89° |
| 2026-05-06 11:59 | 51.16860 | 0.43146 | 13020 ft | 356 kts | 89° |
| 2026-05-06 11:59 | 51.16857 | 0.47129 | 13865 ft | 362 kts | 89° |
| 2026-05-06 11:59 | 51.16849 | 0.51157 | 14616 ft | 366 kts | 89° |
| 2026-05-06 11:59 | 51.16837 | 0.55243 | 15357 ft | 371 kts | 89° |
| 2026-05-06 12:00 | 51.16822 | 0.59359 | 16127 ft | 375 kts | 90° |
| 2026-05-06 12:00 | 51.16805 | 0.63495 | 16854 ft | 379 kts | 90° |
| 2026-05-06 12:00 | 51.16786 | 0.67776 | 17581 ft | 383 kts | 90° |
| 2026-05-06 12:00 | 51.16765 | 0.72049 | 18316 ft | 387 kts | 90° |
| 2026-05-06 12:01 | 51.16743 | 0.76308 | 18921 ft | 391 kts | 90° |
| 2026-05-06 12:01 | 51.16719 | 0.80721 | 19545 ft | 394 kts | 91° |
| 2026-05-06 12:01 | 51.16694 | 0.85047 | 20183 ft | 398 kts | 91° |
| 2026-05-06 12:01 | 51.16666 | 0.89476 | 20802 ft | 401 kts | 91° |
| 2026-05-06 12:02 | 51.16636 | 0.93941 | 21428 ft | 405 kts | 91° |
| 2026-05-06 12:02 | 51.16605 | 0.98447 | 22054 ft | 409 kts | 91° |
| 2026-05-06 12:02 | 51.16571 | 1.02993 | 22666 ft | 412 kts | 91° |
| 2026-05-06 12:02 | 51.16535 | 1.07584 | 23278 ft | 416 kts | 91° |
| 2026-05-06 12:03 | 51.16496 | 1.12207 | 23820 ft | 419 kts | 92° |
| 2026-05-06 12:03 | 51.16456 | 1.16869 | 24334 ft | 422 kts | 92° |
| 2026-05-06 12:03 | 51.16413 | 1.21557 | 24846 ft | 425 kts | 92° |
| 2026-05-06 12:03 | 51.16369 | 1.26275 | 25347 ft | 428 kts | 92° |
| 2026-05-06 12:04 | 51.16322 | 1.31028 | 25815 ft | 430 kts | 92° |
| 2026-05-06 12:04 | 51.16264 | 1.35808 | 26292 ft | 433 kts | 94° |
| 2026-05-06 12:04 | 51.16041 | 1.40608 | 26757 ft | 435 kts | 95° |
| 2026-05-06 12:04 | 51.15809 | 1.45426 | 27201 ft | 438 kts | 95° |
| 2026-05-06 12:05 | 51.15580 | 1.50287 | 27641 ft | 441 kts | 95° |
| 2026-05-06 12:05 | 51.15348 | 1.55159 | 28088 ft | 443 kts | 95° |
| 2026-05-06 12:05 | 51.15111 | 1.60064 | 28518 ft | 445 kts | 95° |
| 2026-05-06 12:05 | 51.14868 | 1.64984 | 28940 ft | 447 kts | 95° |
| 2026-05-06 12:06 | 51.14623 | 1.69932 | 29334 ft | 449 kts | 95° |
| 2026-05-06 12:06 | 51.14373 | 1.74905 | 29724 ft | 451 kts | 95° |
| 2026-05-06 12:06 | 51.14121 | 1.79900 | 30095 ft | 454 kts | 95° |
| 2026-05-06 12:06 | 51.13865 | 1.84910 | 30440 ft | 455 kts | 95° |
| 2026-05-06 12:07 | 51.13607 | 1.89938 | 30798 ft | 457 kts | 95° |
| 2026-05-06 12:07 | 51.13345 | 1.94991 | 31158 ft | 458 kts | 95° |
| 2026-05-06 12:07 | 51.13080 | 2.00042 | 31596 ft | 457 kts | 95° |
| 2026-05-06 12:07 | 51.12814 | 2.05080 | 32043 ft | 456 kts | 95° |
| 2026-05-06 12:08 | 51.12547 | 2.10097 | 32504 ft | 454 kts | 96° |
| 2026-05-06 12:08 | 51.12279 | 2.15104 | 32934 ft | 453 kts | 96° |
| 2026-05-06 12:08 | 51.12101 | 2.18405 | 33241 ft | 452 kts | 96° |
| 2026-05-06 12:08 | 51.11830 | 2.23383 | 33656 ft | 451 kts | 96° |
| 2026-05-06 12:09 | 51.11559 | 2.28345 | 34038 ft | 450 kts | 96° |
| 2026-05-06 12:09 | 51.11285 | 2.33296 | 34319 ft | 450 kts | 96° |
| 2026-05-06 12:09 | 51.11009 | 2.38267 | 34573 ft | 451 kts | 96° |
| 2026-05-06 12:09 | 51.10730 | 2.43247 | 34814 ft | 452 kts | 96° |
| 2026-05-06 12:10 | 51.10449 | 2.48236 | 35047 ft | 453 kts | 96° |
| 2026-05-06 12:10 | 51.10165 | 2.53229 | 35283 ft | 454 kts | 96° |
| 2026-05-06 12:10 | 51.09877 | 2.58239 | 35524 ft | 455 kts | 96° |
| 2026-05-06 12:10 | 51.09553 | 2.63247 | 35755 ft | 455 kts | 100° |
| 2026-05-06 12:11 | 51.08937 | 2.68178 | 35981 ft | 454 kts | 106° |
| 2026-05-06 12:11 | 51.08062 | 2.73008 | 36213 ft | 454 kts | 108° |
| 2026-05-06 12:11 | 51.07183 | 2.77826 | 36445 ft | 455 kts | 108° |
| 2026-05-06 12:11 | 51.06307 | 2.82661 | 36666 ft | 455 kts | 107° |
| 2026-05-06 12:12 | 51.05428 | 2.87507 | 36881 ft | 456 kts | 108° |
| 2026-05-06 12:12 | 51.04548 | 2.92342 | 37097 ft | 456 kts | 108° |
| 2026-05-06 12:12 | 51.03663 | 2.97188 | 37303 ft | 456 kts | 108° |
| 2026-05-06 12:12 | 51.02776 | 3.02030 | 37508 ft | 457 kts | 108° |
| 2026-05-06 12:13 | 51.01886 | 3.06875 | 37706 ft | 457 kts | 108° |
| 2026-05-06 12:13 | 51.00993 | 3.11719 | 37893 ft | 458 kts | 108° |
| 2026-05-06 12:13 | 51.00096 | 3.16571 | 38080 ft | 458 kts | 108° |
| 2026-05-06 12:13 | 50.99198 | 3.21419 | 38261 ft | 458 kts | 108° |
| 2026-05-06 12:14 | 50.98296 | 3.26275 | 38421 ft | 459 kts | 108° |
| 2026-05-06 12:14 | 50.97391 | 3.31138 | 38584 ft | 459 kts | 108° |
| 2026-05-06 12:14 | 50.96484 | 3.35994 | 38716 ft | 459 kts | 108° |
| 2026-05-06 12:14 | 50.95574 | 3.40854 | 38866 ft | 459 kts | 108° |
| 2026-05-06 12:15 | 50.93752 | 3.50553 | 38904 ft | 458 kts | 108° |
| 2026-05-06 12:15 | 50.91924 | 3.60228 | 38898 ft | 458 kts | 109° |
| 2026-05-06 12:16 | 50.90089 | 3.69893 | 38897 ft | 458 kts | 109° |
| 2026-05-06 12:16 | 50.88249 | 3.79539 | 38897 ft | 457 kts | 109° |
| 2026-05-06 12:17 | 50.86404 | 3.89168 | 38898 ft | 457 kts | 109° |
| 2026-05-06 12:17 | 50.84549 | 3.98798 | 38894 ft | 457 kts | 109° |
| 2026-05-06 12:18 | 50.82687 | 4.08411 | 38893 ft | 457 kts | 109° |
| 2026-05-06 12:18 | 50.80819 | 4.18014 | 38891 ft | 457 kts | 109° |
| 2026-05-06 12:19 | 50.78941 | 4.27615 | 38890 ft | 457 kts | 109° |
| 2026-05-06 12:19 | 50.77057 | 4.37197 | 38888 ft | 457 kts | 109° |
| 2026-05-06 12:20 | 50.75167 | 4.46765 | 38886 ft | 456 kts | 110° |
| 2026-05-06 12:20 | 50.73271 | 4.56317 | 38885 ft | 456 kts | 110° |
| 2026-05-06 12:21 | 50.71379 | 4.65796 | 38880 ft | 456 kts | 110° |
| 2026-05-06 12:21 | 50.69469 | 4.75324 | 38881 ft | 456 kts | 110° |
| 2026-05-06 12:22 | 50.67550 | 4.84851 | 38875 ft | 456 kts | 110° |
| 2026-05-06 12:22 | 50.65391 | 4.94211 | 38866 ft | 453 kts | 117° |
| 2026-05-06 12:23 | 50.62691 | 5.03160 | 38857 ft | 452 kts | 118° |
| 2026-05-06 12:23 | 50.59993 | 5.12116 | 38851 ft | 452 kts | 118° |
| 2026-05-06 12:24 | 50.57293 | 5.21052 | 38846 ft | 452 kts | 118° |
| 2026-05-06 12:24 | 50.54582 | 5.29983 | 38847 ft | 453 kts | 118° |
| 2026-05-06 12:25 | 50.51861 | 5.38914 | 38847 ft | 453 kts | 118° |
| 2026-05-06 12:25 | 50.49135 | 5.47831 | 38851 ft | 453 kts | 118° |
| 2026-05-06 12:26 | 50.46397 | 5.56751 | 38853 ft | 454 kts | 118° |
| 2026-05-06 12:26 | 50.43649 | 5.65673 | 38858 ft | 454 kts | 118° |
| 2026-05-06 12:27 | 50.40890 | 5.74599 | 38864 ft | 455 kts | 118° |
| 2026-05-06 12:27 | 50.38132 | 5.83487 | 38843 ft | 452 kts | 118° |
| 2026-05-06 12:28 | 50.35379 | 5.92331 | 38839 ft | 452 kts | 119° |
| 2026-05-06 12:28 | 50.32617 | 6.01166 | 38838 ft | 451 kts | 119° |
| 2026-05-06 12:29 | 50.29850 | 6.09989 | 38825 ft | 451 kts | 119° |
| 2026-05-06 12:29 | 50.27081 | 6.18788 | 38816 ft | 451 kts | 119° |
| 2026-05-06 12:30 | 50.24305 | 6.27575 | 38803 ft | 451 kts | 119° |
| 2026-05-06 12:30 | 50.21518 | 6.36368 | 38796 ft | 452 kts | 119° |
| 2026-05-06 12:31 | 50.18489 | 6.44942 | 38783 ft | 449 kts | 126° |
| 2026-05-06 12:31 | 50.14734 | 6.52680 | 38782 ft | 446 kts | 133° |
| 2026-05-06 12:32 | 50.10720 | 6.60059 | 38783 ft | 446 kts | 133° |
| 2026-05-06 12:32 | 50.06722 | 6.67445 | 38779 ft | 446 kts | 133° |
| 2026-05-06 12:33 | 50.02718 | 6.74825 | 38774 ft | 446 kts | 133° |
| 2026-05-06 12:33 | 49.98714 | 6.82178 | 38766 ft | 446 kts | 133° |
| 2026-05-06 12:34 | 49.94728 | 6.89478 | 38772 ft | 446 kts | 133° |
| 2026-05-06 12:34 | 49.90706 | 6.96823 | 38772 ft | 446 kts | 133° |
| 2026-05-06 12:35 | 49.86676 | 7.04162 | 38787 ft | 447 kts | 133° |
| 2026-05-06 12:35 | 49.82638 | 7.11496 | 38791 ft | 448 kts | 134° |
| 2026-05-06 12:36 | 49.78587 | 7.18830 | 38799 ft | 448 kts | 134° |
| 2026-05-06 12:36 | 49.74530 | 7.26157 | 38792 ft | 448 kts | 134° |
| 2026-05-06 12:37 | 49.70484 | 7.33444 | 38789 ft | 446 kts | 134° |
| 2026-05-06 12:37 | 49.66446 | 7.40695 | 38782 ft | 445 kts | 134° |
| 2026-05-06 12:38 | 49.62404 | 7.47932 | 38781 ft | 445 kts | 134° |
| 2026-05-06 12:38 | 49.58367 | 7.55142 | 38783 ft | 444 kts | 134° |
| 2026-05-06 12:39 | 49.54316 | 7.62355 | 38787 ft | 445 kts | 134° |
| 2026-05-06 12:39 | 49.50282 | 7.69518 | 38791 ft | 446 kts | 134° |
| 2026-05-06 12:40 | 49.46211 | 7.76727 | 38792 ft | 447 kts | 134° |
| 2026-05-06 12:40 | 49.42128 | 7.83939 | 38791 ft | 447 kts | 134° |
| 2026-05-06 12:41 | 49.38037 | 7.91146 | 38799 ft | 448 kts | 134° |
| 2026-05-06 12:41 | 49.33945 | 7.98334 | 38784 ft | 446 kts | 134° |
| 2026-05-06 12:42 | 49.30597 | 8.04200 | 38790 ft | 447 kts | 134° |
| 2026-05-06 12:42 | 49.26492 | 8.11371 | 38786 ft | 448 kts | 134° |
| 2026-05-06 12:43 | 49.22383 | 8.18533 | 38792 ft | 448 kts | 134° |
| 2026-05-06 12:43 | 49.18257 | 8.25705 | 38797 ft | 450 kts | 134° |
| 2026-05-06 12:44 | 49.14119 | 8.32878 | 38798 ft | 450 kts | 134° |
| 2026-05-06 12:44 | 49.09975 | 8.40043 | 38798 ft | 450 kts | 135° |
| 2026-05-06 12:45 | 49.05822 | 8.47202 | 38801 ft | 451 kts | 135° |
| 2026-05-06 12:46 | 48.99582 | 8.57930 | 38807 ft | 451 kts | 135° |
| 2026-05-06 12:46 | 48.95533 | 8.65156 | 38812 ft | 452 kts | 133° |
| 2026-05-06 12:47 | 48.91532 | 8.72516 | 38801 ft | 450 kts | 133° |
| 2026-05-06 12:47 | 48.87530 | 8.79808 | 38801 ft | 449 kts | 134° |
| 2026-05-06 12:48 | 48.83517 | 8.87068 | 38793 ft | 448 kts | 134° |
| 2026-05-06 12:48 | 48.79505 | 8.94302 | 38787 ft | 447 kts | 134° |
| 2026-05-06 12:49 | 48.75501 | 9.01503 | 38778 ft | 446 kts | 134° |
| 2026-05-06 12:49 | 48.71502 | 9.08676 | 38772 ft | 445 kts | 134° |
| 2026-05-06 12:50 | 48.67503 | 9.15827 | 38772 ft | 445 kts | 134° |
| 2026-05-06 12:50 | 48.63264 | 9.22545 | 38770 ft | 438 kts | 145° |
| 2026-05-06 12:51 | 48.58215 | 9.27494 | 38770 ft | 429 kts | 158° |
| 2026-05-06 12:51 | 48.52666 | 9.30641 | 38771 ft | 425 kts | 165° |
| 2026-05-06 12:52 | 48.47052 | 9.33504 | 38782 ft | 426 kts | 165° |
| 2026-05-06 12:52 | 48.41433 | 9.36379 | 38794 ft | 426 kts | 164° |
| 2026-05-06 12:53 | 48.36764 | 9.38761 | 38790 ft | 426 kts | 164° |
| 2026-05-06 12:53 | 48.31148 | 9.41618 | 38786 ft | 426 kts | 164° |
| 2026-05-06 12:54 | 48.25525 | 9.44472 | 38781 ft | 426 kts | 164° |
| 2026-05-06 12:54 | 48.19926 | 9.47308 | 38279 ft | 425 kts | 164° |
| 2026-05-06 12:54 | 48.17119 | 9.48728 | 37532 ft | 427 kts | 165° |
| 2026-05-06 12:55 | 48.14295 | 9.50156 | 36736 ft | 429 kts | 165° |
| 2026-05-06 12:55 | 48.11469 | 9.51584 | 36068 ft | 428 kts | 166° |
| 2026-05-06 12:55 | 48.08649 | 9.53008 | 35410 ft | 427 kts | 166° |
| 2026-05-06 12:55 | 48.05844 | 9.54424 | 34792 ft | 425 kts | 166° |
| 2026-05-06 12:56 | 48.03088 | 9.56036 | 34119 ft | 425 kts | 161° |
| 2026-05-06 12:56 | 48.00464 | 9.58090 | 33123 ft | 427 kts | 155° |
| 2026-05-06 12:56 | 47.97984 | 9.60582 | 31926 ft | 433 kts | 150° |
| 2026-05-06 12:56 | 47.95555 | 9.63243 | 30707 ft | 434 kts | 150° |
| 2026-05-06 12:57 | 47.93114 | 9.65906 | 29422 ft | 436 kts | 150° |
| 2026-05-06 12:57 | 47.90654 | 9.68572 | 28387 ft | 438 kts | 150° |
| 2026-05-06 12:57 | 47.88379 | 9.71029 | 27719 ft | 434 kts | 150° |
| 2026-05-06 12:57 | 47.85966 | 9.73631 | 27296 ft | 423 kts | 150° |
| 2026-05-06 12:58 | 47.83652 | 9.76126 | 27030 ft | 410 kts | 150° |
| 2026-05-06 12:58 | 47.81367 | 9.78583 | 26765 ft | 404 kts | 150° |
| 2026-05-06 12:58 | 47.79077 | 9.81032 | 26275 ft | 406 kts | 150° |
| 2026-05-06 12:58 | 47.76785 | 9.83481 | 25733 ft | 405 kts | 149° |
| 2026-05-06 12:59 | 47.74510 | 9.85914 | 25177 ft | 401 kts | 149° |
| 2026-05-06 12:59 | 47.72258 | 9.88324 | 24636 ft | 397 kts | 149° |
| 2026-05-06 12:59 | 47.70030 | 9.90704 | 24093 ft | 393 kts | 149° |
| 2026-05-06 12:59 | 47.67821 | 9.93060 | 23532 ft | 390 kts | 149° |
| 2026-05-06 13:00 | 47.65635 | 9.95390 | 22964 ft | 385 kts | 149° |
| 2026-05-06 13:00 | 47.63472 | 9.97693 | 22419 ft | 379 kts | 149° |
| 2026-05-06 13:00 | 47.61345 | 9.99958 | 21891 ft | 374 kts | 149° |
| 2026-05-06 13:00 | 47.59243 | 10.02193 | 21369 ft | 369 kts | 149° |
| 2026-05-06 13:01 | 47.57169 | 10.04396 | 20850 ft | 365 kts | 149° |
| 2026-05-06 13:01 | 47.55113 | 10.06576 | 20332 ft | 361 kts | 149° |
| 2026-05-06 13:01 | 47.53082 | 10.08728 | 19812 ft | 356 kts | 149° |
| 2026-05-06 13:01 | 47.51078 | 10.10850 | 19302 ft | 353 kts | 149° |
| 2026-05-06 13:02 | 47.49098 | 10.12945 | 18786 ft | 349 kts | 149° |
| 2026-05-06 13:02 | 47.47126 | 10.15026 | 18286 ft | 346 kts | 149° |
| 2026-05-06 13:02 | 47.45184 | 10.17076 | 17768 ft | 342 kts | 149° |
| 2026-05-06 13:02 | 47.43242 | 10.19034 | 17268 ft | 331 kts | 154° |
| 2026-05-06 13:03 | 47.41331 | 10.20773 | 17008 ft | 313 kts | 153° |
| 2026-05-06 13:03 | 47.39526 | 10.22427 | 16649 ft | 300 kts | 153° |
| 2026-05-06 13:03 | 47.37760 | 10.24040 | 15989 ft | 297 kts | 154° |
| 2026-05-06 13:03 | 47.36021 | 10.25623 | 15497 ft | 291 kts | 154° |
| 2026-05-06 13:04 | 47.34295 | 10.27198 | 15073 ft | 299 kts | 152° |
| 2026-05-06 13:04 | 47.32798 | 10.29360 | 14764 ft | 306 kts | 130° |
| 2026-05-06 13:04 | 47.31938 | 10.32257 | 14388 ft | 315 kts | 109° |
| 2026-05-06 13:04 | 47.31503 | 10.35433 | 14050 ft | 316 kts | 107° |
| 2026-05-06 13:05 | 47.31086 | 10.38614 | 13701 ft | 315 kts | 107° |
| 2026-05-06 13:05 | 47.30668 | 10.41775 | 13271 ft | 313 kts | 107° |
| 2026-05-06 13:05 | 47.30248 | 10.44882 | 13087 ft | 303 kts | 107° |
| 2026-05-06 13:05 | 47.29849 | 10.47840 | 12933 ft | 287 kts | 107° |
| 2026-05-06 13:06 | 47.29469 | 10.50639 | 12793 ft | 272 kts | 108° |
| 2026-05-06 13:06 | 47.29101 | 10.53302 | 12769 ft | 258 kts | 108° |
| 2026-05-06 13:06 | 47.28754 | 10.55822 | 12738 ft | 241 kts | 106° |
| 2026-05-06 13:06 | 47.28639 | 10.58158 | 12843 ft | 218 kts | 95° |
| 2026-05-06 13:07 | 47.28749 | 10.60438 | 12779 ft | 230 kts | 92° |
| 2026-05-06 13:07 | 47.28867 | 10.62761 | 12744 ft | 224 kts | 92° |
| 2026-05-06 13:07 | 47.28981 | 10.65045 | 12521 ft | 223 kts | 92° |
| 2026-05-06 13:07 | 47.29087 | 10.67333 | 12152 ft | 224 kts | 92° |
| 2026-05-06 13:08 | 47.29201 | 10.69618 | 11779 ft | 223 kts | 91° |
| 2026-05-06 13:08 | 47.29317 | 10.71899 | 11435 ft | 223 kts | 90° |
| 2026-05-06 13:08 | 47.29436 | 10.74168 | 11075 ft | 221 kts | 91° |
| 2026-05-06 13:08 | 47.29549 | 10.76423 | 10710 ft | 221 kts | 90° |
| 2026-05-06 13:09 | 47.29663 | 10.78677 | 10321 ft | 221 kts | 90° |
| 2026-05-06 13:09 | 47.29776 | 10.80924 | 9958 ft | 219 kts | 90° |
| 2026-05-06 13:09 | 47.29887 | 10.83139 | 9591 ft | 215 kts | 90° |
| 2026-05-06 13:09 | 47.29996 | 10.85298 | 9215 ft | 213 kts | 90° |
| 2026-05-06 13:10 | 47.30102 | 10.87462 | 8808 ft | 210 kts | 89° |
| 2026-05-06 13:10 | 47.30204 | 10.89583 | 8430 ft | 206 kts | 90° |
| 2026-05-06 13:10 | 47.30307 | 10.91675 | 8080 ft | 204 kts | 89° |
| 2026-05-06 13:10 | 47.30408 | 10.93763 | 7702 ft | 204 kts | 89° |
| 2026-05-06 13:11 | 47.30508 | 10.95842 | 7329 ft | 203 kts | 89° |
| 2026-05-06 13:11 | 47.30606 | 10.97904 | 6962 ft | 201 kts | 88° |
| 2026-05-06 13:11 | 47.30704 | 10.99945 | 6589 ft | 199 kts | 88° |
| 2026-05-06 13:11 | 47.30801 | 11.01952 | 6206 ft | 193 kts | 88° |
| 2026-05-06 13:12 | 47.30893 | 11.03891 | 5832 ft | 187 kts | 87° |
| 2026-05-06 13:12 | 47.30976 | 11.05792 | 5430 ft | 184 kts | 90° |
| 2026-05-06 13:12 | 47.30819 | 11.07655 | 5090 ft | 183 kts | 105° |
| 2026-05-06 13:12 | 47.30355 | 11.09400 | 4710 ft | 184 kts | 115° |
| 2026-05-06 13:13 | 47.29815 | 11.11100 | 4342 ft | 180 kts | 116° |
| 2026-05-06 13:13 | 47.29280 | 11.12718 | 4035 ft | 170 kts | 119° |
| 2026-05-06 13:13 | 47.28719 | 11.14166 | 3885 ft | 157 kts | 123° |
| 2026-05-06 13:13 | 47.28188 | 11.15539 | 3627 ft | 153 kts | 118° |
| 2026-05-06 13:14 | 47.27758 | 11.16957 | 3435 ft | 148 kts | 114° |
| 2026-05-06 13:14 | 47.27409 | 11.18286 | 3313 ft | 131 kts | 111° |
| 2026-05-06 13:14 | 47.27128 | 11.19550 | 3306 ft | 133 kts | 109° |
| 2026-05-06 13:14 | 47.26843 | 11.20875 | 3416 ft | 136 kts | 110° |
| 2026-05-06 13:15 | 47.26525 | 11.22199 | 3485 ft | 138 kts | 112° |
| 2026-05-06 13:15 | 47.26175 | 11.23504 | 3420 ft | 136 kts | 113° |
| 2026-05-06 13:15 | 47.25843 | 11.24798 | 3177 ft | 137 kts | 112° |
| 2026-05-06 13:15 | 47.25530 | 11.26104 | 3098 ft | 136 kts | 109° |
| 2026-05-06 13:16 | 47.25358 | 11.27480 | 2951 ft | 138 kts | 95° |
| 2026-05-06 13:16 | 47.25437 | 11.28879 | 2693 ft | 137 kts | 84° |
| 2026-05-06 13:16 | 47.25607 | 11.30221 | 2448 ft | 129 kts | 85° |
| 2026-05-06 13:16 | 47.25731 | 11.31510 | 2254 ft | 124 kts | 86° |
| 2026-05-06 13:17 | 47.25851 | 11.32772 | 2016 ft | 124 kts | 88° |
| 2026-05-06 13:17 | 47.25983 | 11.33987 | 1903 ft | 115 kts | 86° |
| 2026-05-06 13:17 | 47.26077 | 11.34983 | 1904 ft | 69 kts | 80° |
| 2026-05-06 13:17 | 47.26066 | 11.35259 | 1893 ft | 15 kts | 151° |
| 2026-05-06 13:18 | 47.25966 | 11.35287 | 1895 ft | 14 kts | 173° |
| 2026-05-06 13:18 | 47.25903 | 11.35264 | 1896 ft | 10 kts | 228° |
| 2026-05-06 13:18 | 47.25882 | 11.35164 | 1895 ft | 10 kts | 243° |
| 2026-05-06 13:18 | 47.25848 | 11.35161 | 1900 ft | 5 kts | 168° |
| 2026-05-06 13:19 | 47.25828 | 11.35166 | 1899 ft | 0 kts | 171° |